Date,TemperatureHighF,TemperatureAvgF,TemperatureLowF,DewpointHighF,DewpointAvgF,DewpointLowF,HumidityHigh,HumidityAvg,HumidityLow,PressureMaxIn,PressureMinIn,WindSpeedMaxMPH,WindSpeedAvgMPH,GustSpeedMaxMPH,PrecipitationSumIn
2013-1-1,26.0,24.8,19.0,26.0,24.7,18.0,100,99,97,29.94,29.83,18,6,22,0.00
2013-1-2,19.0,16.1,14.0,18.0,15.1,13.0,97,95,94,30.09,29.90,10,3,17,0.00
2013-1-3,25.0,19.9,15.0,24.0,18.6,14.0,95,94,92,30.09,30.00,20,4,26,0.00
2013-1-4,24.0,21.8,20.0,22.0,20.4,19.0,96,94,90,30.11,30.02,21,10,30,0.00
2013-1-5,31.0,24.8,20.0,25.0,21.7,18.0,95,88,74,30.28,30.08,31,5,32,0.01
2013-1-6,33.0,30.1,28.0,29.0,26.6,23.0,97,87,79,30.10,29.93,17,4,27,0.01
2013-1-7,29.0,25.3,20.0,28.0,23.4,18.0,98,93,83,30.35,30.09,17,3,22,0.00
2013-1-8,40.0,34.3,23.0,31.0,26.7,21.0,92,74,62,30.30,30.19,14,3,18,0.09
2013-1-9,44.0,37.3,31.0,41.0,33.9,25.0,100,88,75,30.37,30.18,18,5,30,0.14
2013-1-10,41.0,35.6,29.0,31.0,28.5,25.0,92,76,55,30.52,30.31,19,4,27,0.01
2013-1-11,50.0,39.3,33.0,50.0,36.3,28.0,100,89,71,30.32,30.00,10,3,20,0.20
2013-1-12,59.0,52.5,49.0,54.0,51.2,48.0,100,96,83,30.10,30.01,14,2,18,0.04
2013-1-13,63.0,55.5,48.0,56.0,51.6,47.0,99,88,74,30.03,29.91,15,2,29,0.29
2013-1-14,54.0,36.3,28.0,54.0,34.5,25.0,100,93,83,30.26,29.93,18,4,29,0.57
2013-1-15,31.0,28.2,26.0,29.0,25.8,24.0,98,91,84,30.25,30.01,10,2,14,0.01
2013-1-16,34.0,30.1,29.0,34.0,30.1,29.0,100,100,98,30.01,29.80,12,4,20,0.01
2013-1-17,28.0,26.6,25.0,27.0,25.5,24.0,97,96,93,30.07,29.98,7,2,16,0.00
2013-1-18,30.0,21.1,12.0,24.0,15.1,8.0,97,79,50,30.34,30.02,23,5,31,0.00
2013-1-19,47.0,39.2,30.0,25.0,19.9,12.0,51,45,39,30.20,29.83,21,6,32,0.25
2013-1-20,42.0,31.3,18.0,30.0,21.4,13.0,83,67,49,29.99,29.76,26,11,33,0.08
2013-1-21,23.0,16.6,7.0,18.0,13.5,4.0,93,87,74,29.97,29.75,14,4,22,0.01
2013-1-22,7.0,2.5,0.0,4.0,-0.4,-3.0,90,87,84,30.06,29.85,20,8,27,0.00
2013-1-23,9.0,4.3,-1.0,5.0,0.4,-4.0,89,84,73,30.10,29.91,16,5,23,0.00
2013-1-24,12.0,8.7,5.0,8.0,4.5,-2.0,92,83,65,30.35,29.88,17,3,21,0.00
2013-1-25,16.0,9.2,3.0,15.0,6.2,-1.0,95,87,78,30.34,29.87,12,3,21,0.00
2013-1-26,20.0,16.5,14.0,19.0,15.5,13.0,96,95,94,30.29,29.92,20,7,26,0.00
2013-1-27,27.0,19.5,12.0,22.0,16.7,11.0,94,88,78,30.40,30.27,5,1,14,0.09
2013-1-28,46.0,37.6,24.0,46.0,36.6,20.0,100,96,81,30.27,29.99,18,5,26,0.55
2013-1-29,60.0,51.5,46.0,56.0,49.9,46.0,100,95,80,30.06,29.89,15,3,21,0.17
2013-1-30,64.0,52.7,46.0,56.0,50.2,44.0,100,91,75,29.89,29.25,14,4,33,1.27
2013-1-31,45.0,20.1,16.0,44.0,17.5,11.0,98,89,80,29.73,29.26,30,9,36,0.92
2013-2-1,18.0,9.4,6.0,16.0,7.5,2.0,95,91,89,30.14,29.68,20,8,28,0.00
2013-2-2,19.0,12.0,4.0,18.0,9.8,2.0,96,90,83,30.14,29.83,10,2,19,0.00
2013-2-3,21.0,17.8,11.0,20.0,16.8,10.0,97,96,94,29.85,29.67,21,5,26,0.00
2013-2-4,26.0,17.0,10.0,26.0,15.7,8.0,98,94,86,29.91,29.75,26,8,30,0.00
2013-2-5,29.0,26.3,24.0,29.0,26.3,24.0,100,99,98,29.83,29.72,14,4,20,0.00
2013-2-6,25.0,21.9,17.0,25.0,21.3,16.0,99,97,95,30.22,29.82,16,5,25,0.00
2013-2-7,30.0,23.8,17.0,27.0,22.0,16.0,97,93,88,30.23,29.98,12,2,19,0.00
2013-2-8,33.0,26.8,19.0,32.0,26.0,18.0,99,97,91,29.99,29.73,24,8,34,0.00
2013-2-9,23.0,18.3,15.0,20.0,16.5,14.0,97,93,84,30.27,29.97,26,6,33,0.00
2013-2-10,40.0,28.2,14.0,25.0,19.9,13.0,95,72,52,30.26,29.98,14,3,18,0.11
2013-2-11,55.0,40.7,30.0,46.0,34.3,25.0,100,81,44,30.00,29.67,27,5,36,0.23
2013-2-12,38.0,32.2,28.0,29.0,26.0,22.0,87,78,69,29.96,29.81,18,8,29,0.01
2013-2-13,37.0,30.8,26.0,30.0,25.5,21.0,99,81,65,29.86,29.59,11,1,18,0.00
2013-2-14,37.0,30.8,23.0,31.0,27.2,22.0,98,87,77,29.88,29.73,15,5,23,0.14
2013-2-15,36.0,30.3,25.0,32.0,27.9,24.0,97,91,74,29.96,29.85,12,4,22,0.02
2013-2-16,25.0,18.9,15.0,25.0,16.4,12.0,98,90,79,29.93,29.77,14,3,16,0.01
2013-2-17,16.0,12.0,9.0,15.0,10.1,6.0,94,93,88,30.08,29.75,18,6,26,0.00
2013-2-18,38.0,25.7,8.0,27.0,17.3,5.0,88,71,53,30.17,29.91,9,2,16,0.10
2013-2-19,38.0,31.1,18.0,36.0,27.9,16.0,98,88,67,29.92,29.61,20,6,28,0.10
2013-2-20,18.0,13.3,12.0,17.0,11.0,8.0,95,91,84,30.04,29.77,29,12,33,0.01
2013-2-21,17.0,13.7,12.0,15.0,11.7,10.0,94,92,88,30.22,29.99,22,6,29,0.01
2013-2-22,22.0,19.0,14.0,19.0,15.4,12.0,93,86,80,30.16,30.05,19,9,25,0.00
2013-2-24,25.0,22.3,21.0,23.0,20.4,19.0,95,92,89,30.02,29.83,16,7,26,0.01
2013-2-25,37.0,27.8,21.0,26.0,21.7,19.0,95,79,63,30.11,30.01,11,3,17,0.00
2013-2-26,31.0,29.3,27.0,31.0,25.6,20.0,99,86,73,30.03,29.58,28,8,33,0.01
2013-2-27,34.0,32.0,29.0,34.0,31.6,28.0,100,98,93,29.63,29.52,12,2,18,0.30
2013-2-28,28.0,26.8,26.0,28.0,26.3,25.0,99,98,96,29.69,29.54,15,4,22,0.01
2013-3-1,27.0,23.2,20.0,27.0,22.8,18.0,99,98,97,29.84,29.68,11,3,19,0.00
2013-3-2,21.0,18.7,17.0,20.0,17.6,16.0,97,96,93,29.82,29.76,13,3,19,0.00
2013-3-3,20.0,18.1,17.0,19.0,16.9,15.0,97,95,92,29.85,29.76,17,6,25,0.00
2013-3-4,28.0,19.7,14.0,21.0,16.4,13.0,96,87,75,29.97,29.84,22,6,27,0.02
2013-3-5,40.0,29.5,17.0,25.0,17.5,8.0,92,65,28,29.98,29.61,21,4,33,0.36
2013-3-6,32.0,27.7,25.0,32.0,27.2,24.0,99,97,92,29.93,29.59,22,7,33,0.23
2013-3-8,30.0,27.0,24.0,26.0,25.0,23.0,98,92,86,30.30,30.22,19,7,26,0.01
2013-3-9,49.0,34.5,21.0,29.0,24.7,19.0,96,70,43,30.30,30.19,6,1,11,0.03
2013-3-10,54.0,44.3,34.0,35.0,28.8,22.0,64,55,46,30.20,30.04,11,3,17,0.01
2013-3-11,50.0,46.4,43.0,46.0,35.2,30.0,95,66,52,30.06,29.77,28,5,28,0.04
2013-3-12,47.0,34.4,29.0,46.0,33.5,26.0,100,96,90,29.92,29.75,16,7,21,0.53
2013-3-13,29.0,25.7,20.0,26.0,23.2,17.0,97,90,71,29.97,29.83,20,6,28,0.06
2013-3-14,28.0,23.4,19.0,19.0,18.2,17.0,94,81,68,30.03,29.97,17,8,29,0.06
2013-3-15,41.0,32.5,24.0,34.0,25.9,19.0,90,76,69,30.02,29.76,17,8,26,0.00
2013-3-16,43.0,35.6,31.0,43.0,35.5,30.0,100,99,92,29.86,29.59,14,3,18,0.09
2013-3-17,31.0,26.8,21.0,30.0,24.5,21.0,100,91,78,30.11,29.84,17,3,21,0.01
2013-3-18,28.0,25.3,23.0,28.0,23.9,22.0,99,95,83,30.09,29.72,23,10,30,0.00
2013-3-19,39.0,31.7,25.0,37.0,26.4,17.0,100,82,45,29.87,29.66,25,9,34,0.44
2013-3-20,32.0,25.4,21.0,24.0,18.2,15.0,93,74,58,29.87,29.71,18,6,27,0.02
2013-3-21,20.0,18.2,17.0,17.0,13.5,10.0,89,82,70,29.78,29.71,16,6,26,0.02
2013-3-22,28.0,21.1,18.0,21.0,17.4,15.0,93,86,73,29.91,29.75,19,7,30,0.00
2013-3-23,38.0,28.0,19.0,25.0,21.0,16.0,89,76,58,29.94,29.86,13,2,21,0.01
2013-3-24,31.0,26.1,21.0,25.0,21.3,17.0,96,82,71,29.91,29.47,18,5,25,0.01
2013-3-25,30.0,26.9,25.0,30.0,26.7,24.0,99,98,92,29.64,29.41,16,5,26,0.16
2013-3-26,31.0,28.0,25.0,31.0,27.6,25.0,100,98,94,29.98,29.63,15,5,25,0.23
2013-3-27,32.0,28.1,26.0,30.0,27.0,26.0,99,95,79,30.06,29.95,17,7,31,0.01
2013-3-28,33.0,29.3,27.0,30.0,27.8,26.0,99,94,86,30.18,30.02,18,5,23,0.01
2013-3-29,43.0,34.6,30.0,29.0,27.8,25.0,92,78,55,30.19,30.10,5,1,15,0.14
2013-3-30,46.0,35.7,28.0,27.0,25.5,23.0,82,68,45,30.18,30.02,8,1,12,0.14
2013-3-31,41.0,38.4,35.0,41.0,32.7,-99.9,100,84,61,30.03,29.69,17,3,27,0.24
2013-4-1,41.0,34.6,27.0,40.0,29.7,17.0,98,83,54,29.91,29.68,17,6,26,0.08
2013-4-2,30.0,25.7,20.0,19.0,16.6,15.0,90,69,54,30.09,29.89,17,7,25,0.01
2013-4-3,31.0,26.0,20.0,20.0,15.4,12.0,80,64,49,30.29,30.07,23,6,28,0.01
2013-4-4,43.0,30.4,17.0,23.0,14.9,9.0,75,54,34,30.29,29.95,12,3,20,0.00
2013-4-5,47.0,38.8,30.0,32.0,26.3,21.0,81,61,47,30.07,29.88,19,6,31,0.00
2013-4-6,51.0,36.6,22.0,23.0,20.0,14.0,87,55,28,30.21,30.07,12,3,17,0.00
2013-4-7,64.0,51.9,42.0,49.0,37.1,23.0,91,58,47,30.08,29.92,16,4,29,0.16
2013-4-8,68.0,57.6,46.0,51.0,47.6,44.0,96,72,51,30.07,29.96,14,2,19,0.16
2013-4-9,74.0,63.8,56.0,57.0,53.7,50.0,86,71,55,30.14,29.98,14,5,21,0.00
2013-4-10,77.0,67.9,56.0,61.0,57.2,53.0,96,69,55,30.02,29.88,19,6,36,0.32
2013-4-11,72.0,62.6,51.0,60.0,56.2,51.0,99,81,64,29.94,29.71,11,2,19,0.32
2013-4-12,60.0,53.1,39.0,57.0,49.8,34.0,100,89,65,29.82,29.58,13,5,24,0.69
2013-4-13,50.0,40.9,34.0,37.0,33.4,29.0,87,75,57,29.96,29.80,19,6,24,0.09
2013-4-14,61.0,44.3,30.0,42.0,33.4,25.0,89,67,47,30.11,29.95,10,3,17,0.00
2013-4-15,56.0,52.4,49.0,49.0,44.8,39.0,89,75,60,30.16,30.04,22,7,33,0.00
2013-4-16,75.0,60.6,49.0,60.0,54.1,48.0,100,81,58,30.24,30.10,13,4,25,0.78
2013-4-17,62.0,55.6,52.0,58.0,54.6,52.0,100,97,86,30.24,30.16,6,2,14,0.79
2013-4-18,76.0,63.8,55.0,63.0,58.3,54.0,100,83,63,30.19,29.91,17,7,28,0.01
2013-4-19,68.0,55.2,37.0,61.0,51.3,34.0,99,87,72,29.90,29.58,20,7,29,0.26
2013-4-20,42.0,34.7,30.0,34.0,28.0,23.0,96,77,58,30.31,29.81,17,6,31,0.07
2013-4-21,49.0,36.1,23.0,27.0,22.9,19.0,85,61,38,30.50,30.31,11,3,18,0.01
2013-4-22,51.0,41.4,33.0,32.0,27.0,24.0,74,58,37,30.45,30.29,16,7,24,0.00
2013-4-23,65.0,47.4,31.0,42.0,35.9,29.0,93,68,38,30.30,30.03,11,3,17,0.00
2013-4-24,70.0,51.4,33.0,56.0,45.7,32.0,99,82,59,30.09,29.78,22,5,32,0.38
2013-4-25,52.0,42.3,32.0,34.0,31.5,28.0,97,68,46,30.31,30.09,15,5,23,0.07
2013-4-26,55.0,44.3,34.0,36.0,32.5,31.0,90,65,42,30.42,30.31,14,2,19,0.00
2013-4-27,65.0,52.8,40.0,42.0,36.3,29.0,68,54,40,30.39,30.22,12,4,20,0.00
2013-4-28,52.0,47.7,46.0,48.0,43.2,-99.9,100,88,66,30.22,30.01,16,6,25,0.42
2013-4-29,54.0,49.6,44.0,53.0,48.7,44.0,100,97,91,30.08,29.98,10,3,12,0.11
2013-4-30,59.0,52.1,48.0,53.0,50.0,48.0,100,93,78,30.24,30.06,18,8,22,0.08
2013-5-1,66.0,55.6,47.0,50.0,44.2,37.0,96,69,41,30.37,30.24,14,7,24,0.00
2013-5-2,67.0,55.4,43.0,42.0,38.1,35.0,85,55,33,30.38,30.27,17,7,25,0.00
2013-5-3,62.0,53.5,44.0,47.0,41.5,32.0,81,65,40,30.30,30.23,21,8,31,0.00
2013-5-4,61.0,50.2,40.0,44.0,40.6,36.0,92,71,53,30.24,30.13,20,11,29,0.00
2013-5-5,62.0,51.5,42.0,41.0,35.9,28.0,85,59,27,30.16,30.07,21,8,26,0.00
2013-5-6,56.0,48.6,41.0,52.0,45.7,38.0,100,90,70,30.11,30.04,18,9,29,0.07
2013-5-7,56.0,53.0,51.0,54.0,52.6,51.0,100,98,89,30.04,29.96,15,8,23,0.46
2013-5-8,65.0,54.6,47.0,53.0,50.2,47.0,100,87,59,30.00,29.92,9,3,23,0.81
2013-5-9,66.0,55.8,49.0,59.0,53.2,49.0,100,92,72,30.06,29.91,14,3,17,0.39
2013-5-10,65.0,58.0,54.0,61.0,52.9,-99.9,99,87,77,30.06,29.99,10,2,19,0.17
2013-5-11,56.0,51.8,48.0,56.0,51.7,46.0,100,100,97,29.84,29.80,12,4,21,0.99
2013-5-12,47.0,41.3,35.0,46.0,33.1,-99.9,99,76,56,30.00,29.79,25,8,31,0.06
2013-5-13,44.0,37.9,31.0,31.0,27.3,25.0,83,66,52,30.13,29.96,17,6,26,0.04
2013-5-14,54.0,43.5,30.0,40.0,32.0,24.0,80,65,50,30.14,29.97,9,2,20,0.00
2013-5-15,80.0,64.8,47.0,64.0,54.5,38.0,87,70,56,29.97,29.80,18,4,29,0.01
2013-5-16,71.0,59.9,59.0,61.0,33.0,-99.9,98,80,64,30.03,29.85,10,3,21,0.21
2013-5-17,75.0,63.7,57.0,60.0,49.7,-99.9,100,77,52,30.17,30.02,13,3,17,0.01
2013-5-18,73.0,61.1,53.0,63.0,55.7,47.0,100,83,70,30.19,30.12,14,4,16,0.00
2013-5-19,63.0,57.6,54.0,61.0,57.2,54.0,100,98,91,30.18,30.08,11,4,15,0.00
2013-5-20,81.0,67.8,57.0,69.0,63.0,57.0,100,86,61,30.12,30.02,15,2,18,0.00
2013-5-21,82.0,72.1,63.0,69.0,65.8,62.0,100,82,59,30.06,29.94,13,2,19,0.00
2013-5-22,81.0,69.2,61.0,66.0,61.6,58.0,94,78,56,29.98,29.88,15,3,27,0.16
2013-5-23,73.0,61.3,55.0,61.0,58.8,55.0,100,92,65,29.93,29.83,11,3,20,0.42
2013-5-24,55.0,39.4,34.0,55.0,37.8,31.0,100,94,82,30.21,29.85,18,4,25,0.34
2013-5-25,53.0,41.0,31.0,39.0,34.1,29.0,98,78,54,30.24,30.18,22,4,29,0.01
2013-5-26,59.0,46.8,35.0,40.0,36.3,31.0,87,68,48,30.26,30.20,21,3,26,0.00
2013-5-27,58.0,50.7,41.0,48.0,41.1,35.0,87,70,54,30.28,30.17,9,1,11,0.00
2013-5-28,73.0,59.5,51.0,67.0,56.6,48.0,100,90,72,30.18,30.09,11,1,28,0.52
2013-5-29,79.0,70.8,62.0,65.0,61.7,59.0,90,74,59,30.18,30.11,15,4,28,0.27
2013-5-30,84.0,73.6,63.0,68.0,63.7,59.0,91,72,51,30.29,30.17,10,2,14,0.00
2013-5-31,84.0,73.3,64.0,67.0,63.6,59.0,88,73,52,30.22,30.09,13,2,15,0.00
2013-6-1,83.0,71.7,61.0,68.0,64.9,61.0,100,80,60,30.11,29.95,12,2,19,0.06
2013-6-2,73.0,68.1,61.0,65.0,62.1,-99.9,99,85,72,29.96,29.89,18,3,23,0.06
2013-6-3,62.0,57.9,51.0,62.0,56.9,47.0,100,97,85,30.06,29.92,11,2,15,0.02
2013-6-4,65.0,54.0,40.0,51.0,45.3,37.0,92,73,59,30.17,30.06,13,2,15,0.00
2013-6-5,73.0,61.5,50.0,61.0,53.8,45.0,90,76,65,30.18,30.03,11,2,17,0.00
2013-6-6,61.0,58.5,57.0,59.0,58.0,57.0,100,98,90,30.04,29.86,10,4,14,0.55
2013-6-7,64.0,59.8,56.0,64.0,59.8,55.0,100,100,100,29.86,29.77,7,1,16,0.51
2013-6-8,67.0,55.8,50.0,60.0,53.8,50.0,100,94,78,30.09,29.85,10,3,17,0.15
2013-6-10,71.0,64.7,61.0,69.0,63.1,60.0,100,95,83,30.01,29.86,11,3,21,0.22
2013-6-11,69.0,62.3,59.0,65.0,61.2,59.0,100,96,84,29.96,29.85,16,5,25,0.19
2013-6-12,76.0,69.8,64.0,70.0,66.8,62.0,99,90,78,29.98,29.87,12,3,18,0.03
2013-6-13,70.0,62.4,56.0,69.0,61.4,54.0,100,97,90,29.88,29.62,20,5,26,0.60
2013-6-14,66.0,58.2,52.0,58.0,54.6,51.0,99,89,71,30.09,29.79,18,4,22,0.01
2013-6-15,72.0,61.5,53.0,56.0,54.3,52.0,100,79,52,30.16,30.06,13,2,18,0.00
2013-6-16,66.0,63.5,60.0,65.0,60.9,54.0,99,92,75,30.11,29.98,11,2,20,0.11
2013-6-17,71.0,64.1,63.0,66.0,63.3,62.0,100,98,84,30.05,30.00,9,3,14,0.15
2013-6-19,72.0,65.9,57.0,57.0,54.4,51.0,83,68,58,30.19,30.11,6,2,12,0.29
2013-6-20,77.0,63.4,55.0,63.0,57.2,52.0,98,82,58,30.29,30.19,8,1,12,0.00
2013-6-22,82.0,77.4,70.0,68.0,67.3,66.0,87,72,60,30.30,30.18,10,2,16,0.00
2013-6-23,83.0,73.5,63.0,70.0,66.5,61.0,94,79,63,30.25,30.16,10,2,14,0.00
2013-6-24,80.0,73.6,68.0,71.0,67.3,64.0,91,81,71,30.24,30.12,12,3,21,0.18
2013-6-25,83.0,72.1,61.0,71.0,66.6,60.0,99,83,65,30.16,30.01,15,4,33,0.53
2013-6-26,74.0,67.5,62.0,70.0,65.7,61.0,100,94,81,30.06,29.93,18,3,21,1.69
2013-6-27,68.0,64.9,63.0,67.0,64.8,63.0,100,100,96,29.93,29.72,17,3,24,0.92
2013-6-28,72.0,64.8,61.0,68.0,64.0,60.0,100,97,84,29.72,29.59,11,3,19,0.86
2013-6-29,74.0,65.1,57.0,66.0,61.5,57.0,100,89,74,29.79,29.60,8,2,17,0.01
2013-6-30,83.0,68.7,59.0,67.0,63.4,59.0,100,85,58,29.93,29.77,14,2,19,0.01
2013-7-1,75.0,67.0,63.0,69.0,65.5,63.0,100,95,80,30.03,29.89,8,1,12,0.75
2013-7-2,75.0,68.5,63.0,72.0,67.5,63.0,100,97,84,30.17,30.02,6,1,14,1.94
2013-7-3,81.0,68.4,62.0,71.0,66.7,62.0,100,95,70,30.27,30.16,6,1,14,0.53
2013-7-4,82.0,70.3,63.0,73.0,68.0,63.0,100,93,69,30.31,30.22,9,1,16,0.09
2013-7-5,81.0,72.4,66.0,72.0,68.3,65.0,100,88,72,30.27,30.21,13,2,19,0.02
2013-7-6,85.0,72.7,64.0,74.0,69.1,64.0,100,90,67,30.27,30.14,6,1,14,0.00
2013-7-7,75.0,68.8,65.0,71.0,66.9,64.0,100,94,79,30.20,30.10,6,1,16,0.27
2013-7-8,78.0,68.0,62.0,69.0,65.2,62.0,100,91,74,30.21,30.14,11,2,16,0.03
2013-7-9,75.0,68.7,64.0,73.0,67.8,64.0,100,97,92,30.19,30.09,8,2,17,0.53
2013-7-10,82.0,67.8,62.0,74.0,64.1,-99.9,100,92,75,30.12,29.94,13,3,27,1.44
2013-7-11,72.0,65.4,61.0,67.0,62.6,58.0,100,91,78,30.06,29.95,13,3,16,0.41
2013-7-12,69.0,62.5,57.0,65.0,60.0,56.0,97,91,81,30.16,30.02,9,1,13,0.01
2013-7-13,76.0,67.4,61.0,69.0,64.9,61.0,100,92,76,30.34,30.15,7,2,13,0.00
2013-7-14,83.0,73.4,65.0,72.0,68.3,65.0,100,85,68,30.40,30.33,18,4,19,0.00
2013-7-15,85.0,74.8,68.0,72.0,68.3,65.0,94,81,64,30.44,30.35,8,3,14,0.00
2013-7-16,86.0,76.1,71.0,75.0,71.1,68.0,94,85,68,30.41,30.35,13,4,23,0.00
2013-7-17,84.0,75.5,70.0,76.0,72.1,70.0,100,90,75,30.39,30.27,8,3,13,0.00
2013-7-18,73.0,72.3,71.0,72.0,70.8,70.0,99,95,91,30.29,30.25,5,3,9,0.00
2013-7-19,79.0,73.0,70.0,74.0,69.9,68.0,95,90,83,30.05,29.99,7,2,14,0.01
2013-7-20,72.0,68.5,65.0,71.0,66.2,-99.9,100,94,80,30.01,29.93,14,2,19,0.15
2013-7-21,80.0,70.2,64.0,71.0,67.2,64.0,100,91,68,30.06,29.99,6,1,10,0.03
2013-7-22,75.0,68.5,64.0,72.0,67.7,64.0,100,97,86,30.04,29.87,6,1,10,0.31
2013-7-23,77.0,66.2,60.0,70.0,64.6,60.0,100,95,79,29.87,29.79,15,4,18,0.47
2013-7-24,66.0,61.1,57.0,62.0,57.3,52.0,100,88,70,30.03,29.80,13,3,17,0.38
2013-7-25,72.0,60.1,49.0,59.0,53.4,48.0,99,80,60,30.10,30.01,7,1,17,0.01
2013-7-26,78.0,68.4,61.0,61.0,58.6,57.0,88,72,53,30.10,30.08,5,1,7,0.00
2013-7-27,70.0,63.7,59.0,67.0,62.2,57.0,100,95,89,30.09,29.94,9,1,21,0.28
2013-7-28,72.0,64.0,57.0,64.0,59.2,55.0,100,86,62,30.09,29.93,12,2,18,0.15
2013-7-29,68.0,59.2,50.0,58.0,53.9,49.0,97,83,67,30.24,30.08,16,1,19,0.04
2013-7-30,71.0,62.2,54.0,61.0,56.5,52.0,95,82,67,30.28,30.22,14,1,16,0.00
2013-7-31,73.0,63.8,57.0,65.0,60.3,56.0,100,89,70,30.22,30.03,5,0,9,0.04
2013-8-1,73.0,65.4,61.0,67.0,62.8,60.0,100,92,74,30.03,29.93,10,1,17,0.16
2013-8-2,72.0,65.0,59.0,62.0,59.9,58.0,96,84,64,30.06,29.96,15,2,20,0.04
2013-8-3,66.0,62.2,60.0,64.0,61.2,60.0,100,97,86,30.04,30.00,10,2,19,0.28
2013-8-4,67.0,59.4,54.0,61.0,55.6,52.0,99,88,69,30.12,30.03,12,1,20,0.01
2013-8-5,69.0,59.6,50.0,56.0,53.2,49.0,97,81,59,30.16,30.08,7,1,16,0.00
2013-8-6,77.0,64.3,54.0,64.0,57.3,51.0,96,79,55,30.09,30.05,8,1,13,0.00
2013-8-7,80.0,67.5,62.0,72.0,65.2,61.0,100,93,71,30.10,30.01,10,2,26,0.83
2013-8-8,77.0,69.1,63.0,74.0,67.8,63.0,100,96,86,30.08,30.01,13,1,14,0.91
2013-8-9,71.0,68.2,66.0,70.0,68.1,66.0,100,100,94,30.07,29.98,12,2,18,2.22
2013-8-10,74.0,67.3,59.0,66.0,62.4,55.0,100,85,71,30.18,30.07,12,2,15,0.02
2013-8-11,79.0,69.0,60.0,68.0,64.5,59.0,100,86,68,30.19,30.10,6,1,12,0.21
2013-8-12,77.0,68.3,63.0,67.0,64.9,63.0,100,90,68,30.12,29.98,6,1,13,0.22
2013-8-13,71.0,63.3,55.0,67.0,60.4,-99.9,100,93,82,29.99,29.87,13,3,22,0.56
2013-8-14,60.0,53.4,49.0,54.0,50.5,47.0,97,90,77,30.17,29.98,13,2,20,0.01
2013-8-15,70.0,52.8,46.0,55.0,40.1,-99.9,97,78,53,30.23,30.14,4,0,11,0.00
2013-8-16,74.0,59.6,50.0,60.0,51.1,-99.9,94,79,60,30.24,30.15,7,0,12,0.00
2013-8-17,68.0,60.1,52.0,58.0,54.8,51.0,96,84,63,30.30,30.23,13,2,20,0.00
2013-8-18,67.0,59.5,55.0,63.0,56.8,-99.9,99,93,85,30.29,30.20,6,2,12,0.04
2013-8-19,71.0,61.9,59.0,67.0,55.5,-99.9,100,96,86,30.22,30.14,7,1,11,0.37
2013-8-20,75.0,65.5,59.0,65.0,59.2,-99.9,99,84,66,30.27,30.17,7,1,12,0.11
2013-8-21,79.0,67.7,60.0,71.0,63.5,58.0,100,87,68,30.27,30.16,9,1,13,0.06
2013-8-22,77.0,67.3,62.0,71.0,65.3,61.0,99,94,81,30.19,30.06,14,2,25,0.68
2013-8-23,74.0,64.3,58.0,65.0,62.0,58.0,100,93,70,30.20,30.04,5,0,14,1.32
2013-8-24,76.0,63.4,54.0,64.0,59.5,54.0,100,88,62,30.38,30.20,5,0,11,0.01
2013-8-25,76.0,63.9,54.0,63.0,57.0,-99.9,97,81,60,30.44,30.32,9,1,15,0.00
2013-8-26,77.0,68.7,62.0,68.0,62.7,58.0,88,81,70,30.34,30.11,12,2,15,0.00
2013-8-27,72.0,68.5,66.0,70.0,67.1,65.0,100,95,87,30.11,30.04,13,2,16,0.01
2013-8-28,69.0,67.9,67.0,69.0,67.9,67.0,100,100,99,29.99,29.88,12,1,18,2.04
2013-8-29,82.0,70.6,65.0,71.0,67.6,65.0,100,91,66,30.13,29.98,6,0,9,0.01
2013-8-30,81.0,70.8,62.0,71.0,66.9,62.0,100,88,71,30.12,29.95,7,1,12,0.00
2013-8-31,79.0,71.8,66.0,71.0,68.5,65.0,99,90,72,29.98,29.89,8,1,15,0.00
2013-9-1,75.0,69.2,65.0,71.0,65.9,-99.9,99,92,79,29.94,29.88,6,1,12,0.00
2013-9-2,79.0,69.8,65.0,72.0,68.0,64.0,100,94,76,29.91,29.83,13,2,18,0.00
2013-9-3,66.0,61.4,56.0,65.0,58.7,55.0,100,91,72,30.07,29.88,14,3,22,0.08
2013-9-4,69.0,60.1,52.0,59.0,55.6,52.0,100,86,67,30.17,30.06,7,2,13,0.00
2013-9-5,67.0,60.3,53.0,60.0,55.7,46.0,100,85,67,30.22,30.11,17,3,21,0.00
2013-9-6,70.0,56.0,43.0,55.0,48.4,42.0,95,77,54,30.28,30.18,7,1,9,0.00
2013-9-7,72.0,61.3,50.0,57.0,52.0,46.0,93,73,47,30.19,30.02,8,1,13,0.00
2013-9-8,72.0,64.7,58.0,67.0,59.8,-99.9,97,86,75,30.12,29.99,7,1,14,0.29
2013-9-9,74.0,62.6,54.0,68.0,60.0,53.0,99,92,82,30.19,30.12,6,1,10,0.00
2013-9-10,83.0,72.9,64.0,76.0,69.8,63.0,99,90,79,30.26,30.15,9,2,17,0.00
2013-9-11,81.0,74.5,70.0,75.0,71.4,69.0,97,91,78,30.26,30.13,9,1,12,0.00
2013-9-12,75.0,66.8,60.0,71.0,65.5,58.0,100,95,86,30.01,29.86,18,4,20,0.57
2013-9-13,59.0,52.9,45.0,58.0,51.5,43.0,100,95,83,30.01,29.83,14,3,22,0.57
2013-9-14,56.0,47.5,43.0,47.0,43.8,41.0,98,88,70,30.19,30.01,11,2,16,0.02
2013-9-15,67.0,52.1,41.0,57.0,47.0,-99.9,99,87,67,30.20,30.11,4,0,16,0.00
2013-9-16,60.0,55.0,51.0,56.0,52.6,49.0,99,92,81,30.30,30.09,7,2,16,0.25
2013-9-17,62.0,50.9,43.0,51.0,46.5,39.0,99,86,60,30.40,30.30,6,1,15,0.01
2013-9-18,53.0,43.1,40.0,51.0,39.8,38.0,96,88,85,30.31,30.19,0,0,1,0.00
2013-9-19,71.0,58.6,52.0,64.0,56.6,51.0,100,94,76,30.20,30.10,4,1,10,0.01
2013-9-20,75.0,63.5,55.0,68.0,61.7,55.0,100,94,78,30.12,29.94,10,1,15,0.01
2013-9-21,65.0,58.8,54.0,65.0,58.8,54.0,100,100,99,29.94,29.72,15,2,29,1.57
2013-9-22,55.0,51.1,50.0,54.0,48.2,-99.9,100,93,76,29.96,29.79,12,2,19,0.12
2013-9-23,49.0,43.3,41.0,44.0,41.1,39.0,95,92,82,30.11,30.10,4,1,11,0.00
2013-9-24,70.0,50.7,38.0,56.0,45.3,37.0,100,84,49,30.11,30.00,5,0,7,0.00
2013-9-25,66.0,55.5,48.0,53.0,48.6,44.0,91,78,62,30.01,29.93,7,1,11,0.00
2013-9-26,71.0,58.6,49.0,54.0,49.9,44.0,93,74,54,30.12,29.97,11,1,14,0.00
2013-9-27,70.0,56.9,49.0,55.0,50.4,45.0,98,80,59,30.25,30.11,5,0,10,0.00
2013-9-28,62.0,53.2,46.0,54.0,50.5,45.0,100,91,72,30.31,30.22,15,2,15,0.00
2013-9-29,69.0,54.1,45.0,56.0,48.7,-99.9,98,85,64,30.22,30.07,7,1,9,0.00
2013-9-30,64.0,57.1,50.0,59.0,54.4,48.0,96,91,83,30.10,30.04,9,1,11,0.00
2013-10-1,62.0,60.9,59.0,59.0,58.2,57.0,95,90,88,30.11,30.08,4,0,7,0.00
2013-10-2,73.0,64.8,58.0,65.0,61.2,57.0,98,88,75,30.16,30.10,6,2,16,0.00
2013-10-3,75.0,66.5,57.0,67.0,63.2,57.0,100,89,74,30.18,30.11,6,1,11,0.00
2013-10-4,75.0,67.2,63.0,67.0,64.6,62.0,100,92,75,30.18,30.11,6,1,11,0.16
2013-10-5,77.0,69.4,64.0,68.0,65.1,63.0,99,87,71,30.17,30.09,9,1,13,0.17
2013-10-6,82.0,70.1,62.0,67.0,62.8,59.0,97,79,54,30.09,29.89,19,3,19,0.01
2013-10-7,65.0,53.4,45.0,61.0,50.2,42.0,100,89,75,30.12,29.78,18,5,25,0.64
2013-10-8,61.0,50.1,40.0,48.0,43.6,39.0,98,80,55,30.30,30.12,11,2,13,0.01
2013-10-9,60.0,50.6,44.0,46.0,42.7,41.0,90,75,54,30.33,30.26,14,4,24,0.00
2013-10-10,59.0,52.5,44.0,52.0,47.9,42.0,99,85,66,30.21,30.10,5,1,10,0.07
2013-10-11,57.0,52.3,48.0,57.0,52.2,48.0,100,100,98,30.10,30.05,9,2,15,0.49
2013-10-12,62.0,56.4,52.0,61.0,55.8,52.0,100,98,90,30.22,30.06,12,5,22,0.06
2013-10-13,61.0,53.9,52.0,58.0,52.2,-99.9,100,97,90,30.31,30.20,10,4,19,0.22
2013-10-14,61.0,54.6,51.0,59.0,54.3,51.0,100,99,92,30.32,30.24,5,2,10,0.22
2013-10-15,64.0,55.9,51.0,58.0,53.8,51.0,100,93,80,30.27,30.05,7,3,14,0.00
2013-10-16,62.0,56.1,49.0,59.0,53.9,48.0,97,92,80,30.06,29.93,6,1,14,0.01
2013-10-17,58.0,53.1,44.0,58.0,53.1,44.0,100,100,98,29.94,29.70,19,3,29,0.61
2013-10-18,53.0,45.1,40.0,44.0,42.0,39.0,100,90,67,30.02,29.88,14,7,23,0.32
2013-10-20,51.0,45.7,39.0,39.0,37.6,35.0,92,74,62,30.06,30.00,15,3,20,0.07
2013-10-21,61.0,48.4,37.0,43.0,37.8,33.0,90,69,48,30.07,29.89,17,1,17,0.00
2013-10-22,55.0,43.1,34.0,44.0,35.9,30.0,99,77,59,29.91,29.83,17,4,21,0.23
2013-10-23,36.0,33.6,32.0,34.0,31.9,29.0,99,94,77,29.87,29.68,12,2,22,0.17
2013-10-24,38.0,32.0,30.0,32.0,29.8,28.0,98,92,68,30.08,29.86,14,6,24,0.04
2013-10-25,37.0,31.8,29.0,33.0,29.9,28.0,99,93,83,30.26,30.07,7,2,13,0.02
2013-10-26,44.0,36.2,27.0,32.0,27.6,24.0,93,72,51,30.21,29.88,16,4,25,0.01
2013-10-27,39.0,36.5,38.0,33.0,23.9,-99.9,80,71,72,29.94,29.92,17,9,26,0.00
2013-10-31,62.0,57.6,54.0,57.0,54.9,53.0,97,91,81,29.96,29.65,14,4,19,0.19
2013-11-1,65.0,54.6,47.0,58.0,49.1,42.0,97,82,65,29.72,29.47,16,4,31,0.37
2013-11-2,50.0,44.1,38.0,44.0,40.6,37.0,98,88,76,29.89,29.66,13,4,24,0.13
2013-11-3,41.0,35.8,32.0,38.0,31.6,-99.9,99,89,68,30.23,29.89,14,7,24,0.13
2013-11-7,37.0,34.1,32.0,36.0,29.2,25.0,97,82,71,30.06,29.97,23,10,35,0.59
2013-11-8,34.0,31.1,27.0,28.0,26.3,23.0,92,82,73,30.22,30.02,22,6,26,0.01
2013-11-9,51.0,38.4,24.0,31.0,24.6,-99.9,91,63,38,30.22,29.97,16,2,24,0.00
2013-11-10,47.0,38.8,32.0,35.0,30.7,27.0,83,73,51,30.20,29.94,22,10,30,0.00
2013-11-11,47.0,36.9,30.0,36.0,28.3,22.0,96,74,41,30.21,29.98,16,4,21,0.09
2013-11-12,36.0,24.4,21.0,35.0,22.3,17.0,98,92,77,30.33,29.98,17,7,30,0.13
2013-11-13,27.0,22.4,18.0,21.0,19.1,17.0,96,87,75,30.40,30.28,12,6,20,0.00
2013-11-14,45.0,32.7,24.0,23.0,20.2,18.0,83,62,42,30.28,30.15,15,5,23,0.01
2013-11-15,48.0,43.6,40.0,39.0,26.0,21.0,85,50,42,30.21,30.12,12,3,22,0.01
2013-11-16,56.0,45.3,37.0,49.0,41.3,-99.9,99,89,76,30.24,30.09,7,2,14,0.04
2013-11-17,58.0,50.9,44.0,55.0,49.9,43.0,99,97,87,30.10,29.62,15,3,27,0.53
2013-11-18,50.0,43.7,33.0,48.0,35.9,26.0,95,74,57,29.95,29.67,24,10,33,0.44
2013-11-19,32.0,28.3,26.0,26.0,23.9,22.0,88,83,77,30.30,29.94,20,4,36,0.00
2013-11-20,38.0,29.5,22.0,22.0,19.6,17.0,91,68,45,30.40,30.29,15,6,23,0.00
2013-11-21,48.0,36.2,26.0,38.0,30.5,19.0,92,80,67,30.40,30.26,7,1,12,0.00
2013-11-22,51.0,45.0,33.0,49.0,44.5,33.0,100,98,86,30.26,30.03,18,3,30,0.68
2013-11-23,32.0,24.7,13.0,32.0,21.0,-99.9,99,88,72,30.16,30.01,18,7,26,0.09
2013-11-24,15.0,11.8,9.0,11.0,8.5,6.0,90,86,79,30.35,30.16,18,9,27,0.00
2013-11-25,33.0,22.4,10.0,18.0,11.1,6.0,87,64,36,30.34,30.15,10,4,20,0.00
2013-11-26,33.0,30.5,28.0,32.0,28.8,18.0,100,93,54,30.17,29.61,10,1,20,0.83
2013-11-27,33.0,23.3,15.0,33.0,23.0,14.0,100,98,95,29.94,29.57,22,7,32,0.45
2013-11-28,22.0,17.1,13.0,20.0,15.4,11.0,95,93,90,30.31,29.94,22,7,26,0.00
2013-11-29,28.0,22.5,17.0,22.0,19.5,15.0,94,88,76,30.54,30.30,11,2,14,0.03
2013-11-30,27.0,21.6,17.0,24.0,18.4,-99.9,96,90,82,30.53,30.19,11,4,15,0.01
2013-12-1,41.0,34.0,25.0,33.0,29.0,23.0,96,82,67,30.19,29.92,5,0,12,0.14
2013-12-2,44.0,37.8,32.0,38.0,33.9,29.0,92,86,77,29.93,29.78,11,1,14,0.01
2013-12-3,49.0,40.2,36.0,42.0,37.0,35.0,97,89,73,29.91,29.80,5,0,7,0.01
2013-12-4,55.0,44.5,36.0,48.0,40.9,34.0,95,88,77,30.00,29.90,6,1,15,0.01
2013-12-5,59.0,50.6,41.0,57.0,49.4,41.0,100,96,88,29.97,29.90,19,2,24,0.56
2013-12-6,42.0,30.4,26.0,42.0,30.4,25.0,100,100,98,30.14,29.93,18,4,28,0.63
2013-12-7,26.0,20.7,17.0,26.0,19.1,-99.9,98,96,94,30.43,30.13,0,0,0,0.01
2013-12-8,22.0,16.7,13.0,22.0,15.7,12.0,98,95,93,30.42,30.08,0,0,0,0.00
2013-12-9,38.0,29.1,22.0,38.0,28.9,22.0,100,99,97,30.08,29.94,17,5,24,0.37
2013-12-10,26.0,22.1,18.0,25.0,21.1,13.0,97,96,85,30.10,29.89,18,6,24,0.13
2013-12-11,24.0,19.1,14.0,19.0,15.1,12.0,94,84,74,30.21,30.10,19,7,28,0.00
2013-12-12,18.0,13.1,9.0,17.0,8.3,5.0,95,81,69,30.27,30.11,19,8,30,0.00
2013-12-13,29.0,20.8,14.0,20.0,14.0,8.0,81,75,67,30.17,30.06,20,5,30,0.00
2013-12-14,29.0,26.5,25.0,29.0,22.5,-99.9,100,88,72,30.16,29.63,14,3,18,0.00
2013-12-15,36.0,24.9,19.0,36.0,24.5,17.0,100,98,96,29.84,29.54,21,10,33,0.07
2013-12-16,23.0,17.9,14.0,23.0,17.1,13.0,98,96,95,30.01,29.84,18,7,31,0.01
2013-12-17,31.0,27.1,23.0,31.0,27.1,23.0,100,99,98,29.96,29.84,12,3,19,0.00
2013-12-18,26.0,21.4,19.0,23.0,20.3,18.0,98,96,85,30.09,29.91,17,7,22,0.00
2013-12-19,48.0,41.0,26.0,38.0,29.6,18.0,86,64,47,30.06,29.99,20,6,32,0.59
2013-12-20,54.0,48.7,40.0,51.0,39.8,28.0,96,72,48,30.03,29.92,15,4,21,0.09
2013-12-21,61.0,54.5,51.0,58.0,51.7,-99.9,100,93,86,29.94,29.79,11,2,23,0.52
2013-12-22,64.0,55.6,53.0,58.0,53.3,50.0,99,92,82,29.96,29.68,25,6,33,0.48
2013-12-23,53.0,35.6,24.0,51.0,35.3,22.0,100,98,90,30.17,29.93,14,5,19,0.29
2013-12-24,24.0,16.5,8.0,22.0,14.2,6.0,96,90,82,30.33,30.11,29,7,30,0.01
2013-12-25,24.0,14.7,7.0,16.0,10.3,5.0,92,83,69,30.34,30.14,7,2,12,0.00
2013-12-26,29.0,24.5,21.0,25.0,20.4,15.0,95,84,71,30.24,30.05,19,5,26,0.00
2013-12-27,36.0,29.8,22.0,25.0,20.6,18.0,84,69,54,30.27,30.21,16,4,23,0.01
2013-12-28,46.0,38.5,34.0,32.0,25.4,-99.9,69,61,52,30.22,30.04,14,3,17,0.01
2013-12-29,44.0,37.0,34.0,38.0,33.5,26.0,100,89,48,30.05,29.58,16,5,25,1.03
2013-12-30,34.0,22.2,16.0,34.0,21.6,15.0,100,97,94,30.04,29.76,16,5,27,0.14
2013-12-31,20.0,18.6,17.0,19.0,17.5,16.0,96,95,92,30.17,29.95,16,5,22,0.01
2014-1-1,38.0,28.3,20.0,26.0,22.6,18.0,92,80,60,30.20,29.99,14,2,19,0.05
2014-1-2,31.0,25.0,9.0,27.0,22.3,6.0,96,89,81,29.99,29.56,19,2,25,0.01